FIN5TO EFHK-EKBI
Flight info
| Callsign | FIN5TO |
|---|---|
| Flight time | 1h 33m |
| Altitude | 38000 |
| Route | NUNTO Y369 REKDO DCT KOSKA DCT MIKNA DCT ABINO DCT LOKSA |
| Aircraft | A20N/M-SDE2E3FGHIRWXY/LB1 |
Departure
| Time | 2026-04-26 07:19 |
|---|---|
| Airport | Helsinki Vantaa Airport (EFHK) |
Arrival
| Time | 2026-04-26 08:52 |
|---|---|
| Airport | Billund Airport (EKBI) |
| Time | Latitude | Longitude | Altitude | Speed | Heading |
|---|---|---|---|---|---|
| 2026-04-26 06:57 | 60.32008 | 24.96844 | 163 ft | 0 kts | 193° |
| 2026-04-26 07:09 | 60.32013 | 24.96847 | 163 ft | 2 kts | 193° |
| 2026-04-26 07:09 | 60.32028 | 24.96854 | 163 ft | 2 kts | 193° |
| 2026-04-26 07:10 | 60.32072 | 24.96874 | 163 ft | 2 kts | 193° |
| 2026-04-26 07:11 | 60.32101 | 24.96888 | 163 ft | 2 kts | 175° |
| 2026-04-26 07:11 | 60.32113 | 24.96881 | 163 ft | 0 kts | 157° |
| 2026-04-26 07:13 | 60.32107 | 24.96887 | 163 ft | 4 kts | 153° |
| 2026-04-26 07:13 | 60.32050 | 24.96962 | 163 ft | 14 kts | 150° |
| 2026-04-26 07:13 | 60.31952 | 24.97064 | 163 ft | 14 kts | 150° |
| 2026-04-26 07:14 | 60.31925 | 24.97184 | 163 ft | 10 kts | 99° |
| 2026-04-26 07:14 | 60.31862 | 24.97305 | 162 ft | 18 kts | 154° |
| 2026-04-26 07:14 | 60.31718 | 24.97456 | 161 ft | 28 kts | 153° |
| 2026-04-26 07:14 | 60.31605 | 24.97570 | 162 ft | 27 kts | 153° |
| 2026-04-26 07:15 | 60.31433 | 24.97750 | 161 ft | 28 kts | 152° |
| 2026-04-26 07:15 | 60.31260 | 24.97921 | 161 ft | 26 kts | 153° |
| 2026-04-26 07:15 | 60.31091 | 24.98095 | 161 ft | 29 kts | 152° |
| 2026-04-26 07:15 | 60.30902 | 24.98271 | 159 ft | 30 kts | 156° |
| 2026-04-26 07:16 | 60.30725 | 24.98424 | 158 ft | 23 kts | 157° |
| 2026-04-26 07:16 | 60.30611 | 24.98555 | 157 ft | 16 kts | 120° |
| 2026-04-26 07:16 | 60.30623 | 24.98671 | 156 ft | 0 kts | 44° |
| 2026-04-26 07:17 | 60.30625 | 24.98675 | 156 ft | 3 kts | 43° |
| 2026-04-26 07:17 | 60.30673 | 24.98728 | 155 ft | 12 kts | 24° |
| 2026-04-26 07:17 | 60.30741 | 24.98779 | 156 ft | 10 kts | 5° |
| 2026-04-26 07:17 | 60.30781 | 24.98754 | 155 ft | 0 kts | 334° |
| 2026-04-26 07:18 | 60.30801 | 24.98735 | 155 ft | 21 kts | 334° |
| 2026-04-26 07:18 | 60.31136 | 24.98391 | 156 ft | 84 kts | 334° |
| 2026-04-26 07:18 | 60.31815 | 24.97698 | 161 ft | 132 kts | 333° |
| 2026-04-26 07:19 | 60.32607 | 24.96930 | 800 ft | 121 kts | 335° |
| 2026-04-26 07:19 | 60.33329 | 24.96116 | 1544 ft | 121 kts | 321° |
| 2026-04-26 07:19 | 60.33756 | 24.94549 | 2077 ft | 142 kts | 298° |
| 2026-04-26 07:19 | 60.33985 | 24.92507 | 2582 ft | 159 kts | 291° |
| 2026-04-26 07:20 | 60.34139 | 24.90201 | 3109 ft | 175 kts | 290° |
| 2026-04-26 07:20 | 60.34304 | 24.87614 | 3613 ft | 199 kts | 287° |
| 2026-04-26 07:20 | 60.34275 | 24.84582 | 4235 ft | 234 kts | 272° |
| 2026-04-26 07:20 | 60.33830 | 24.81211 | 4928 ft | 264 kts | 258° |
| 2026-04-26 07:21 | 60.33019 | 24.77722 | 5789 ft | 281 kts | 250° |
| 2026-04-26 07:21 | 60.32057 | 24.74272 | 6876 ft | 285 kts | 248° |
| 2026-04-26 07:21 | 60.31060 | 24.70791 | 7986 ft | 288 kts | 248° |
| 2026-04-26 07:21 | 60.30066 | 24.67307 | 9086 ft | 292 kts | 248° |
| 2026-04-26 07:22 | 60.29067 | 24.63757 | 10059 ft | 298 kts | 247° |
| 2026-04-26 07:22 | 60.28016 | 24.59941 | 10544 ft | 320 kts | 246° |
| 2026-04-26 07:22 | 60.26893 | 24.55824 | 11020 ft | 340 kts | 246° |
| 2026-04-26 07:22 | 60.25753 | 24.51658 | 11851 ft | 346 kts | 245° |
| 2026-04-26 07:23 | 60.24581 | 24.47409 | 12836 ft | 349 kts | 245° |
| 2026-04-26 07:23 | 60.23393 | 24.43121 | 13758 ft | 352 kts | 245° |
| 2026-04-26 07:23 | 60.22198 | 24.38790 | 14617 ft | 355 kts | 244° |
| 2026-04-26 07:23 | 60.20997 | 24.34434 | 15620 ft | 356 kts | 243° |
| 2026-04-26 07:24 | 60.19788 | 24.30059 | 16432 ft | 360 kts | 242° |
| 2026-04-26 07:24 | 60.18561 | 24.25640 | 17302 ft | 362 kts | 242° |
| 2026-04-26 07:24 | 60.17327 | 24.21204 | 18119 ft | 366 kts | 241° |
| 2026-04-26 07:24 | 60.16073 | 24.16708 | 18744 ft | 373 kts | 242° |
| 2026-04-26 07:25 | 60.14807 | 24.12179 | 19532 ft | 377 kts | 242° |
| 2026-04-26 07:25 | 60.13514 | 24.07565 | 20147 ft | 382 kts | 242° |
| 2026-04-26 07:25 | 60.12195 | 24.02885 | 20779 ft | 387 kts | 243° |
| 2026-04-26 07:25 | 60.10854 | 23.98153 | 21429 ft | 392 kts | 243° |
| 2026-04-26 07:26 | 60.09499 | 23.93371 | 22042 ft | 397 kts | 243° |
| 2026-04-26 07:26 | 60.08129 | 23.88527 | 22619 ft | 402 kts | 244° |
| 2026-04-26 07:26 | 60.06790 | 23.83585 | 23217 ft | 406 kts | 245° |
| 2026-04-26 07:26 | 60.05479 | 23.78532 | 23732 ft | 410 kts | 246° |
| 2026-04-26 07:27 | 60.04165 | 23.73443 | 24244 ft | 413 kts | 246° |
| 2026-04-26 07:27 | 60.02833 | 23.68314 | 24717 ft | 417 kts | 246° |
| 2026-04-26 07:27 | 60.01478 | 23.63141 | 25178 ft | 422 kts | 246° |
| 2026-04-26 07:27 | 60.00109 | 23.57937 | 25651 ft | 425 kts | 246° |
| 2026-04-26 07:28 | 59.98722 | 23.52689 | 26102 ft | 429 kts | 246° |
| 2026-04-26 07:28 | 59.97332 | 23.47451 | 26543 ft | 433 kts | 246° |
| 2026-04-26 07:28 | 59.95911 | 23.42112 | 27002 ft | 437 kts | 246° |
| 2026-04-26 07:28 | 59.94474 | 23.36728 | 27431 ft | 441 kts | 246° |
| 2026-04-26 07:29 | 59.93028 | 23.31320 | 27622 ft | 445 kts | 246° |
| 2026-04-26 07:29 | 59.91560 | 23.25852 | 28055 ft | 447 kts | 246° |
| 2026-04-26 07:29 | 59.90085 | 23.20359 | 28461 ft | 451 kts | 246° |
| 2026-04-26 07:29 | 59.88597 | 23.14835 | 28813 ft | 454 kts | 247° |
| 2026-04-26 07:30 | 59.87090 | 23.09261 | 29195 ft | 458 kts | 247° |
| 2026-04-26 07:30 | 59.85594 | 23.03727 | 29554 ft | 462 kts | 247° |
| 2026-04-26 07:30 | 59.84062 | 22.98082 | 29928 ft | 465 kts | 247° |
| 2026-04-26 07:30 | 59.82519 | 22.92404 | 30241 ft | 468 kts | 247° |
| 2026-04-26 07:31 | 59.80962 | 22.86701 | 30541 ft | 470 kts | 247° |
| 2026-04-26 07:31 | 59.79395 | 22.80957 | 30875 ft | 473 kts | 247° |
| 2026-04-26 07:31 | 59.77823 | 22.75207 | 31245 ft | 474 kts | 247° |
| 2026-04-26 07:31 | 59.76247 | 22.69469 | 31670 ft | 474 kts | 247° |
| 2026-04-26 07:32 | 59.74668 | 22.63740 | 32099 ft | 473 kts | 247° |
| 2026-04-26 07:32 | 59.73089 | 22.58017 | 32504 ft | 473 kts | 247° |
| 2026-04-26 07:32 | 59.71506 | 22.52291 | 32905 ft | 473 kts | 247° |
| 2026-04-26 07:32 | 59.69923 | 22.46582 | 33293 ft | 473 kts | 247° |
| 2026-04-26 07:33 | 59.68337 | 22.40881 | 33689 ft | 473 kts | 246° |
| 2026-04-26 07:33 | 59.66749 | 22.35181 | 34031 ft | 472 kts | 246° |
| 2026-04-26 07:33 | 59.65178 | 22.29559 | 34342 ft | 472 kts | 246° |
| 2026-04-26 07:33 | 59.63590 | 22.23887 | 34645 ft | 471 kts | 246° |
| 2026-04-26 07:34 | 59.62001 | 22.18223 | 34930 ft | 471 kts | 246° |
| 2026-04-26 07:34 | 59.60409 | 22.12569 | 35207 ft | 471 kts | 246° |
| 2026-04-26 07:34 | 59.58814 | 22.06911 | 35490 ft | 471 kts | 246° |
| 2026-04-26 07:34 | 59.57224 | 22.01279 | 35762 ft | 470 kts | 246° |
| 2026-04-26 07:35 | 59.55630 | 21.95641 | 36012 ft | 470 kts | 246° |
| 2026-04-26 07:35 | 59.54030 | 21.90020 | 36275 ft | 470 kts | 245° |
| 2026-04-26 07:35 | 59.52429 | 21.84403 | 36546 ft | 469 kts | 245° |
| 2026-04-26 07:35 | 59.50823 | 21.78795 | 36803 ft | 469 kts | 245° |
| 2026-04-26 07:36 | 59.49219 | 21.73207 | 37079 ft | 469 kts | 245° |
| 2026-04-26 07:36 | 59.47620 | 21.67629 | 37321 ft | 468 kts | 245° |
| 2026-04-26 07:36 | 59.46019 | 21.62055 | 37568 ft | 468 kts | 245° |
| 2026-04-26 07:36 | 59.44416 | 21.56490 | 37774 ft | 468 kts | 245° |
| 2026-04-26 07:37 | 59.42809 | 21.50913 | 37853 ft | 468 kts | 245° |
| 2026-04-26 07:37 | 59.39614 | 21.39902 | 37863 ft | 466 kts | 245° |
| 2026-04-26 07:38 | 59.36399 | 21.28856 | 37869 ft | 467 kts | 245° |
| 2026-04-26 07:38 | 59.33166 | 21.17806 | 37876 ft | 466 kts | 245° |
| 2026-04-26 07:39 | 59.29933 | 21.06821 | 37884 ft | 468 kts | 245° |
| 2026-04-26 07:39 | 59.26669 | 20.95776 | 37895 ft | 469 kts | 245° |
| 2026-04-26 07:40 | 59.23394 | 20.84742 | 37895 ft | 468 kts | 245° |
| 2026-04-26 07:40 | 59.20113 | 20.73749 | 37905 ft | 468 kts | 245° |
| 2026-04-26 07:41 | 59.17033 | 20.62592 | 37909 ft | 465 kts | 250° |
| 2026-04-26 07:41 | 59.14281 | 20.51179 | 37912 ft | 465 kts | 250° |
| 2026-04-26 07:42 | 59.11522 | 20.39770 | 37920 ft | 466 kts | 250° |
| 2026-04-26 07:42 | 59.08765 | 20.28465 | 37920 ft | 466 kts | 250° |
| 2026-04-26 07:43 | 59.06064 | 20.17469 | 37927 ft | 466 kts | 250° |
| 2026-04-26 07:43 | 59.03253 | 20.06089 | 37943 ft | 467 kts | 250° |
| 2026-04-26 07:44 | 59.00430 | 19.94726 | 37950 ft | 467 kts | 250° |
| 2026-04-26 07:44 | 58.97598 | 19.83377 | 37956 ft | 467 kts | 250° |
| 2026-04-26 07:45 | 58.94756 | 19.72044 | 37970 ft | 468 kts | 249° |
| 2026-04-26 07:45 | 58.91921 | 19.60800 | 37972 ft | 467 kts | 250° |
| 2026-04-26 07:46 | 58.89062 | 19.49530 | 37977 ft | 467 kts | 249° |
| 2026-04-26 07:46 | 58.86193 | 19.38261 | 37987 ft | 467 kts | 249° |
| 2026-04-26 07:47 | 58.83320 | 19.27035 | 37983 ft | 465 kts | 249° |
| 2026-04-26 07:47 | 58.80443 | 19.15860 | 37985 ft | 464 kts | 249° |
| 2026-04-26 07:48 | 58.77561 | 19.04711 | 37990 ft | 465 kts | 250° |
| 2026-04-26 07:48 | 58.74673 | 18.93587 | 37996 ft | 465 kts | 250° |
| 2026-04-26 07:49 | 58.71769 | 18.82483 | 37995 ft | 464 kts | 250° |
| 2026-04-26 07:49 | 58.68870 | 18.71458 | 37991 ft | 462 kts | 250° |
| 2026-04-26 07:50 | 58.64516 | 18.54979 | 37997 ft | 461 kts | 250° |
| 2026-04-26 07:50 | 58.61618 | 18.44074 | 37989 ft | 461 kts | 250° |
| 2026-04-26 07:51 | 58.58701 | 18.33134 | 38002 ft | 460 kts | 250° |
| 2026-04-26 07:51 | 58.55775 | 18.22225 | 38007 ft | 460 kts | 250° |
| 2026-04-26 07:52 | 58.52836 | 18.11349 | 38006 ft | 458 kts | 250° |
| 2026-04-26 07:52 | 58.49892 | 18.00476 | 38030 ft | 461 kts | 250° |
| 2026-04-26 07:53 | 58.46932 | 17.89625 | 38036 ft | 460 kts | 250° |
| 2026-04-26 07:53 | 58.43974 | 17.78815 | 38037 ft | 458 kts | 250° |
| 2026-04-26 07:54 | 58.41048 | 17.68111 | 38041 ft | 457 kts | 250° |
| 2026-04-26 07:54 | 58.38092 | 17.57410 | 38049 ft | 455 kts | 250° |
| 2026-04-26 07:55 | 58.35220 | 17.47058 | 38061 ft | 454 kts | 250° |
| 2026-04-26 07:55 | 58.32272 | 17.36481 | 38051 ft | 452 kts | 250° |
| 2026-04-26 07:56 | 58.29342 | 17.25990 | 38053 ft | 450 kts | 250° |
| 2026-04-26 07:56 | 58.26390 | 17.15503 | 38057 ft | 450 kts | 251° |
| 2026-04-26 07:57 | 58.23438 | 17.05060 | 38078 ft | 448 kts | 250° |
| 2026-04-26 07:57 | 58.20504 | 16.94728 | 38089 ft | 447 kts | 250° |
| 2026-04-26 07:58 | 58.17552 | 16.84367 | 38094 ft | 446 kts | 250° |
| 2026-04-26 07:58 | 58.14592 | 16.74032 | 38102 ft | 445 kts | 250° |
| 2026-04-26 07:59 | 58.11636 | 16.63754 | 38114 ft | 444 kts | 250° |
| 2026-04-26 07:59 | 58.08673 | 16.53504 | 38110 ft | 443 kts | 250° |
| 2026-04-26 08:00 | 58.05717 | 16.43289 | 38119 ft | 443 kts | 250° |
| 2026-04-26 08:00 | 58.02748 | 16.33091 | 38120 ft | 442 kts | 250° |
| 2026-04-26 08:01 | 57.99784 | 16.22978 | 38118 ft | 441 kts | 250° |
| 2026-04-26 08:01 | 57.96824 | 16.12927 | 38129 ft | 440 kts | 250° |
| 2026-04-26 08:02 | 57.93845 | 16.02819 | 38141 ft | 442 kts | 250° |
| 2026-04-26 08:02 | 57.90861 | 15.92736 | 38121 ft | 440 kts | 250° |
| 2026-04-26 08:03 | 57.87878 | 15.82703 | 38131 ft | 439 kts | 251° |
| 2026-04-26 08:03 | 57.84996 | 15.72625 | 38129 ft | 437 kts | 251° |
| 2026-04-26 08:04 | 57.82595 | 15.64290 | 38151 ft | 437 kts | 251° |
| 2026-04-26 08:04 | 57.79190 | 15.52572 | 38156 ft | 441 kts | 251° |
| 2026-04-26 08:05 | 57.76248 | 15.42525 | 38160 ft | 439 kts | 251° |
| 2026-04-26 08:05 | 57.73781 | 15.34136 | 38159 ft | 439 kts | 251° |
| 2026-04-26 08:06 | 57.70836 | 15.24177 | 38163 ft | 440 kts | 250° |
| 2026-04-26 08:06 | 57.67860 | 15.14171 | 38170 ft | 439 kts | 250° |
| 2026-04-26 08:07 | 57.64889 | 15.04214 | 38177 ft | 439 kts | 250° |
| 2026-04-26 08:07 | 57.61920 | 14.94280 | 38169 ft | 438 kts | 250° |
| 2026-04-26 08:08 | 57.58953 | 14.84371 | 38170 ft | 437 kts | 250° |
| 2026-04-26 08:08 | 57.55956 | 14.74510 | 38169 ft | 436 kts | 250° |
| 2026-04-26 08:09 | 57.52976 | 14.64675 | 38178 ft | 436 kts | 250° |
| 2026-04-26 08:09 | 57.49992 | 14.54864 | 38180 ft | 435 kts | 250° |
| 2026-04-26 08:10 | 57.47015 | 14.45131 | 38183 ft | 436 kts | 250° |
| 2026-04-26 08:10 | 57.44004 | 14.35330 | 38193 ft | 437 kts | 250° |
| 2026-04-26 08:11 | 57.40984 | 14.25508 | 38197 ft | 438 kts | 250° |
| 2026-04-26 08:11 | 57.37953 | 14.15720 | 38192 ft | 438 kts | 250° |
| 2026-04-26 08:12 | 57.34916 | 14.05978 | 38185 ft | 436 kts | 250° |
| 2026-04-26 08:12 | 57.31964 | 13.96507 | 38185 ft | 434 kts | 250° |
| 2026-04-26 08:13 | 57.28908 | 13.86764 | 38192 ft | 434 kts | 250° |
| 2026-04-26 08:13 | 57.25904 | 13.77228 | 38207 ft | 434 kts | 250° |
| 2026-04-26 08:14 | 57.22871 | 13.67611 | 38213 ft | 433 kts | 250° |
| 2026-04-26 08:14 | 57.19843 | 13.58071 | 38221 ft | 433 kts | 249° |
| 2026-04-26 08:15 | 57.16798 | 13.48522 | 38238 ft | 432 kts | 249° |
| 2026-04-26 08:15 | 57.13747 | 13.38989 | 38236 ft | 431 kts | 249° |
| 2026-04-26 08:16 | 57.10710 | 13.29520 | 38239 ft | 430 kts | 249° |
| 2026-04-26 08:16 | 57.07666 | 13.20073 | 38236 ft | 429 kts | 249° |
| 2026-04-26 08:17 | 57.04614 | 13.10642 | 38236 ft | 428 kts | 249° |
| 2026-04-26 08:17 | 57.01582 | 13.01317 | 38236 ft | 427 kts | 248° |
| 2026-04-26 08:18 | 56.98530 | 12.91964 | 38250 ft | 427 kts | 248° |
| 2026-04-26 08:18 | 56.95467 | 12.82622 | 38238 ft | 427 kts | 248° |
| 2026-04-26 08:19 | 56.92388 | 12.73250 | 38260 ft | 430 kts | 248° |
| 2026-04-26 08:19 | 56.89300 | 12.63902 | 38266 ft | 429 kts | 248° |
| 2026-04-26 08:20 | 56.86209 | 12.54566 | 38267 ft | 429 kts | 247° |
| 2026-04-26 08:20 | 56.83115 | 12.45263 | 38267 ft | 428 kts | 247° |
| 2026-04-26 08:21 | 56.80028 | 12.36017 | 38273 ft | 429 kts | 247° |
| 2026-04-26 08:21 | 56.76913 | 12.26737 | 38278 ft | 428 kts | 247° |
| 2026-04-26 08:22 | 56.73801 | 12.17498 | 38285 ft | 428 kts | 246° |
| 2026-04-26 08:22 | 56.70681 | 12.08255 | 38280 ft | 427 kts | 246° |
| 2026-04-26 08:23 | 56.67561 | 11.99057 | 38153 ft | 427 kts | 246° |
| 2026-04-26 08:23 | 56.66002 | 11.94477 | 37875 ft | 425 kts | 246° |
| 2026-04-26 08:23 | 56.64447 | 11.89915 | 37357 ft | 426 kts | 246° |
| 2026-04-26 08:24 | 56.62879 | 11.85331 | 36695 ft | 425 kts | 246° |
| 2026-04-26 08:24 | 56.61318 | 11.80768 | 36035 ft | 425 kts | 246° |
| 2026-04-26 08:24 | 56.59761 | 11.76224 | 35368 ft | 424 kts | 246° |
| 2026-04-26 08:24 | 56.58202 | 11.71686 | 34706 ft | 423 kts | 246° |
| 2026-04-26 08:25 | 56.56645 | 11.67161 | 33952 ft | 423 kts | 246° |
| 2026-04-26 08:25 | 56.55089 | 11.62654 | 33281 ft | 420 kts | 246° |
| 2026-04-26 08:25 | 56.53542 | 11.58175 | 32587 ft | 418 kts | 246° |
| 2026-04-26 08:25 | 56.51999 | 11.53716 | 31882 ft | 417 kts | 246° |
| 2026-04-26 08:26 | 56.50461 | 11.49286 | 31295 ft | 413 kts | 246° |
| 2026-04-26 08:26 | 56.48940 | 11.44916 | 30744 ft | 408 kts | 246° |
| 2026-04-26 08:26 | 56.47431 | 11.40591 | 30169 ft | 404 kts | 246° |
| 2026-04-26 08:26 | 56.45965 | 11.36384 | 29618 ft | 398 kts | 246° |
| 2026-04-26 08:27 | 56.44498 | 11.32182 | 29093 ft | 392 kts | 246° |
| 2026-04-26 08:27 | 56.43051 | 11.28042 | 28560 ft | 387 kts | 246° |
| 2026-04-26 08:27 | 56.41599 | 11.23869 | 28039 ft | 404 kts | 246° |
| 2026-04-26 08:27 | 56.40114 | 11.19586 | 27492 ft | 419 kts | 246° |
| 2026-04-26 08:28 | 56.38547 | 11.15117 | 26921 ft | 422 kts | 245° |
| 2026-04-26 08:28 | 56.36969 | 11.10656 | 26342 ft | 420 kts | 245° |
| 2026-04-26 08:28 | 56.35403 | 11.06244 | 25777 ft | 415 kts | 245° |
| 2026-04-26 08:28 | 56.33853 | 11.01880 | 25063 ft | 413 kts | 245° |
| 2026-04-26 08:29 | 56.32301 | 10.97494 | 24168 ft | 417 kts | 245° |
| 2026-04-26 08:29 | 56.30737 | 10.93091 | 23501 ft | 414 kts | 245° |
| 2026-04-26 08:29 | 56.29201 | 10.88783 | 23093 ft | 402 kts | 245° |
| 2026-04-26 08:29 | 56.27710 | 10.84610 | 22815 ft | 390 kts | 245° |
| 2026-04-26 08:30 | 56.26252 | 10.80526 | 22481 ft | 388 kts | 245° |
| 2026-04-26 08:30 | 56.24794 | 10.76429 | 22123 ft | 390 kts | 245° |
| 2026-04-26 08:30 | 56.23325 | 10.72305 | 21551 ft | 392 kts | 245° |
| 2026-04-26 08:30 | 56.21855 | 10.68189 | 20981 ft | 390 kts | 245° |
| 2026-04-26 08:31 | 56.20407 | 10.64149 | 20158 ft | 392 kts | 245° |
| 2026-04-26 08:31 | 56.18924 | 10.60023 | 19498 ft | 391 kts | 245° |
| 2026-04-26 08:31 | 56.17460 | 10.55968 | 19044 ft | 383 kts | 245° |
| 2026-04-26 08:31 | 56.16017 | 10.51975 | 18441 ft | 381 kts | 245° |
| 2026-04-26 08:32 | 56.14582 | 10.48010 | 17890 ft | 376 kts | 244° |
| 2026-04-26 08:32 | 56.13168 | 10.44106 | 17346 ft | 371 kts | 244° |
| 2026-04-26 08:32 | 56.11771 | 10.40254 | 16801 ft | 366 kts | 244° |
| 2026-04-26 08:32 | 56.10396 | 10.36466 | 16269 ft | 361 kts | 244° |
| 2026-04-26 08:33 | 56.09029 | 10.32711 | 15739 ft | 358 kts | 244° |
| 2026-04-26 08:33 | 56.07675 | 10.28994 | 15215 ft | 354 kts | 244° |
| 2026-04-26 08:33 | 56.06335 | 10.25318 | 14697 ft | 351 kts | 243° |
| 2026-04-26 08:33 | 56.05005 | 10.21667 | 14186 ft | 350 kts | 243° |
| 2026-04-26 08:34 | 56.03679 | 10.18027 | 13637 ft | 349 kts | 243° |
| 2026-04-26 08:34 | 56.02356 | 10.14416 | 13128 ft | 344 kts | 243° |
| 2026-04-26 08:34 | 56.01050 | 10.10862 | 12628 ft | 341 kts | 243° |
| 2026-04-26 08:34 | 55.99758 | 10.07328 | 12125 ft | 339 kts | 242° |
| 2026-04-26 08:35 | 55.98471 | 10.03823 | 11632 ft | 335 kts | 242° |
| 2026-04-26 08:35 | 55.97188 | 10.00366 | 11125 ft | 333 kts | 240° |
| 2026-04-26 08:35 | 55.95784 | 9.97114 | 10878 ft | 326 kts | 235° |
| 2026-04-26 08:35 | 55.94383 | 9.94079 | 10714 ft | 307 kts | 237° |
| 2026-04-26 08:36 | 55.93093 | 9.91197 | 10443 ft | 291 kts | 237° |
| 2026-04-26 08:36 | 55.91859 | 9.88417 | 10085 ft | 284 kts | 237° |
| 2026-04-26 08:36 | 55.90632 | 9.85642 | 9951 ft | 290 kts | 237° |
| 2026-04-26 08:36 | 55.89373 | 9.82827 | 9673 ft | 289 kts | 237° |
| 2026-04-26 08:37 | 55.88121 | 9.80044 | 9289 ft | 287 kts | 236° |
| 2026-04-26 08:37 | 55.86883 | 9.77269 | 8917 ft | 284 kts | 236° |
| 2026-04-26 08:37 | 55.85650 | 9.74525 | 8544 ft | 284 kts | 236° |
| 2026-04-26 08:37 | 55.84429 | 9.71808 | 8170 ft | 281 kts | 236° |
| 2026-04-26 08:38 | 55.83206 | 9.69110 | 7802 ft | 280 kts | 235° |
| 2026-04-26 08:38 | 55.81985 | 9.66421 | 7434 ft | 278 kts | 234° |
| 2026-04-26 08:38 | 55.80766 | 9.63738 | 7063 ft | 277 kts | 234° |
| 2026-04-26 08:38 | 55.79563 | 9.61099 | 6697 ft | 274 kts | 234° |
| 2026-04-26 08:39 | 55.78368 | 9.58484 | 6312 ft | 271 kts | 234° |
| 2026-04-26 08:39 | 55.77180 | 9.55904 | 5946 ft | 268 kts | 233° |
| 2026-04-26 08:39 | 55.76016 | 9.53340 | 5598 ft | 267 kts | 233° |
| 2026-04-26 08:39 | 55.74867 | 9.50805 | 5440 ft | 259 kts | 233° |
| 2026-04-26 08:40 | 55.73730 | 9.48313 | 5347 ft | 261 kts | 233° |
| 2026-04-26 08:40 | 55.72599 | 9.45834 | 5321 ft | 259 kts | 233° |
| 2026-04-26 08:40 | 55.71461 | 9.43343 | 5323 ft | 259 kts | 233° |
| 2026-04-26 08:40 | 55.70324 | 9.40859 | 5317 ft | 260 kts | 233° |
| 2026-04-26 08:41 | 55.69190 | 9.38361 | 5319 ft | 260 kts | 233° |
| 2026-04-26 08:41 | 55.68107 | 9.35990 | 5323 ft | 260 kts | 233° |
| 2026-04-26 08:41 | 55.66983 | 9.33516 | 5315 ft | 261 kts | 233° |
| 2026-04-26 08:41 | 55.65848 | 9.31017 | 5323 ft | 260 kts | 233° |
| 2026-04-26 08:42 | 55.64714 | 9.28519 | 5320 ft | 260 kts | 232° |
| 2026-04-26 08:42 | 55.63574 | 9.26022 | 5317 ft | 260 kts | 233° |
| 2026-04-26 08:42 | 55.62580 | 9.23384 | 5338 ft | 257 kts | 250° |
| 2026-04-26 08:42 | 55.62328 | 9.20282 | 5329 ft | 256 kts | 273° |
| 2026-04-26 08:43 | 55.62404 | 9.17162 | 5318 ft | 255 kts | 271° |
| 2026-04-26 08:43 | 55.62275 | 9.13976 | 5317 ft | 258 kts | 264° |
| 2026-04-26 08:43 | 55.62054 | 9.10827 | 5309 ft | 257 kts | 264° |
| 2026-04-26 08:43 | 55.61831 | 9.07677 | 5321 ft | 260 kts | 264° |
| 2026-04-26 08:44 | 55.61612 | 9.04551 | 5258 ft | 258 kts | 264° |
| 2026-04-26 08:44 | 55.61398 | 9.01417 | 4987 ft | 255 kts | 263° |
| 2026-04-26 08:44 | 55.61192 | 8.98306 | 4611 ft | 254 kts | 264° |
| 2026-04-26 08:44 | 55.60990 | 8.95208 | 4254 ft | 253 kts | 264° |
| 2026-04-26 08:45 | 55.60793 | 8.92126 | 3970 ft | 250 kts | 264° |
| 2026-04-26 08:45 | 55.60603 | 8.89087 | 3713 ft | 247 kts | 264° |
| 2026-04-26 08:45 | 55.60410 | 8.86070 | 3426 ft | 245 kts | 263° |
| 2026-04-26 08:45 | 55.60393 | 8.83087 | 3184 ft | 243 kts | 283° |
| 2026-04-26 08:46 | 55.61156 | 8.80506 | 3069 ft | 237 kts | 313° |
| 2026-04-26 08:46 | 55.62528 | 8.79026 | 3002 ft | 229 kts | 343° |
| 2026-04-26 08:46 | 55.64115 | 8.78933 | 3017 ft | 237 kts | 8° |
| 2026-04-26 08:46 | 55.65741 | 8.79444 | 2997 ft | 235 kts | 9° |
| 2026-04-26 08:47 | 55.67348 | 8.79949 | 2995 ft | 234 kts | 9° |
| 2026-04-26 08:47 | 55.68945 | 8.80438 | 2994 ft | 236 kts | 9° |
| 2026-04-26 08:47 | 55.70522 | 8.80935 | 2989 ft | 227 kts | 11° |
| 2026-04-26 08:47 | 55.71910 | 8.82017 | 2984 ft | 214 kts | 41° |
| 2026-04-26 08:48 | 55.72735 | 8.84087 | 3000 ft | 201 kts | 69° |
| 2026-04-26 08:48 | 55.73086 | 8.86511 | 3001 ft | 209 kts | 83° |
| 2026-04-26 08:48 | 55.73222 | 8.89071 | 2994 ft | 209 kts | 88° |
| 2026-04-26 08:48 | 55.73296 | 8.91654 | 2794 ft | 209 kts | 88° |
| 2026-04-26 08:49 | 55.73380 | 8.94210 | 2465 ft | 204 kts | 88° |
| 2026-04-26 08:49 | 55.73456 | 8.96688 | 2199 ft | 200 kts | 88° |
| 2026-04-26 08:49 | 55.73533 | 8.99094 | 1894 ft | 186 kts | 89° |
| 2026-04-26 08:49 | 55.73600 | 9.01289 | 1666 ft | 171 kts | 89° |
| 2026-04-26 08:50 | 55.73662 | 9.03324 | 1426 ft | 159 kts | 89° |
| 2026-04-26 08:50 | 55.73722 | 9.05182 | 1220 ft | 142 kts | 89° |
| 2026-04-26 08:50 | 55.73772 | 9.06868 | 990 ft | 135 kts | 89° |
| 2026-04-26 08:50 | 55.73830 | 9.08531 | 784 ft | 135 kts | 88° |
| 2026-04-26 08:51 | 55.73940 | 9.11843 | 452 ft | 133 kts | 89° |
| 2026-04-26 08:51 | 55.73987 | 9.13495 | 279 ft | 133 kts | 89° |
| 2026-04-26 08:51 | 55.74025 | 9.15020 | 245 ft | 111 kts | 86° |
| 2026-04-26 08:52 | 55.74068 | 9.16239 | 243 ft | 85 kts | 88° |
| 2026-04-26 08:52 | 55.74089 | 9.16844 | 245 ft | 18 kts | 73° |
| 2026-04-26 08:52 | 55.74187 | 9.16909 | 242 ft | 13 kts | 358° |
| 2026-04-26 08:52 | 55.74244 | 9.16869 | 241 ft | 15 kts | 301° |
| 2026-04-26 08:53 | 55.74246 | 9.16654 | 241 ft | 25 kts | 267° |
| 2026-04-26 08:53 | 55.74233 | 9.16301 | 241 ft | 30 kts | 265° |
| 2026-04-26 08:53 | 55.74217 | 9.15802 | 241 ft | 31 kts | 267° |
| 2026-04-26 08:53 | 55.74207 | 9.15422 | 241 ft | 30 kts | 265° |
| 2026-04-26 08:54 | 55.74200 | 9.15196 | 241 ft | 26 kts | 265° |
| 2026-04-26 08:54 | 55.74188 | 9.14864 | 241 ft | 28 kts | 267° |
| 2026-04-26 08:54 | 55.74180 | 9.14573 | 241 ft | 13 kts | 264° |
| 2026-04-26 08:54 | 55.74138 | 9.14494 | 241 ft | 8 kts | 190° |
| 2026-04-26 08:55 | 55.74063 | 9.14490 | 242 ft | 15 kts | 181° |
| 2026-04-26 08:55 | 55.73955 | 9.14422 | 242 ft | 18 kts | 224° |
| 2026-04-26 08:55 | 55.73887 | 9.14294 | 241 ft | 15 kts | 234° |
| 2026-04-26 08:55 | 55.73840 | 9.14102 | 241 ft | 16 kts | 258° |
| 2026-04-26 08:56 | 55.73836 | 9.14007 | 241 ft | 0 kts | 266° |
| 2026-04-26 08:56 | 55.73833 | 9.13962 | 241 ft | 7 kts | 255° |
| 2026-04-26 08:57 | 55.73788 | 9.13926 | 241 ft | 9 kts | 182° |
| 2026-04-26 08:57 | 55.73759 | 9.13925 | 241 ft | 0 kts | 182° |